createdAt,value
2018-11-04T00:00:23.575Z,14.00
2018-11-04T00:02:59.418Z,14.37
2018-11-04T00:05:34.689Z,13.50
2018-11-04T00:08:09.580Z,13.40
2018-11-04T00:10:44.634Z,14.43
2018-11-04T00:13:19.706Z,14.53
2018-11-04T00:15:54.947Z,12.67
2018-11-04T00:18:30.075Z,15.10
2018-11-04T00:21:04.917Z,14.03
2018-11-04T00:23:39.896Z,15.20
2018-11-04T00:26:14.964Z,14.60
2018-11-04T00:28:50.131Z,15.40
2018-11-04T00:31:25.133Z,15.73
2018-11-04T00:34:00.211Z,15.00
2018-11-04T00:36:35.437Z,15.00
2018-11-04T00:39:10.573Z,15.77
2018-11-04T00:41:46.229Z,16.50
2018-11-04T00:44:21.578Z,16.00
2018-11-04T00:46:56.632Z,15.20
2018-11-04T00:49:31.716Z,15.63
2018-11-04T00:52:06.937Z,17.50
2018-11-04T00:54:41.958Z,16.07
2018-11-04T00:57:16.912Z,17.13
2018-11-04T00:59:51.998Z,16.37
2018-11-04T01:02:27.046Z,16.70
2018-11-04T01:05:02.200Z,16.77
2018-11-04T01:07:37.845Z,15.00
2018-11-04T01:10:13.220Z,17.20
2018-11-04T01:12:47.953Z,16.13
2018-11-04T01:15:23.240Z,15.43
2018-11-04T01:17:58.455Z,16.67
2018-11-04T01:20:33.349Z,16.70
2018-11-04T01:23:08.474Z,16.40
2018-11-04T01:25:43.738Z,17.07
2018-11-04T01:28:18.599Z,16.77
2018-11-04T01:30:53.803Z,16.90
2018-11-04T01:33:28.563Z,16.27
2018-11-04T01:36:03.379Z,16.20
2018-11-04T01:38:38.313Z,16.87
2018-11-04T01:41:13.175Z,17.27
2018-11-04T01:43:48.260Z,16.37
2018-11-04T01:46:23.307Z,18.40
2018-11-04T01:48:58.350Z,15.87
2018-11-04T01:51:33.436Z,17.27
2018-11-04T01:54:08.497Z,16.67
2018-11-04T01:56:50.987Z,16.03
2018-11-04T01:59:25.923Z,17.00
2018-11-04T02:02:01.164Z,17.87
2018-11-04T02:04:36.301Z,17.20
2018-11-04T02:07:11.472Z,18.87
2018-11-04T02:09:46.357Z,16.90
2018-11-04T02:12:21.469Z,17.93
2018-11-04T02:14:56.269Z,18.23
2018-11-04T02:17:31.412Z,17.47
2018-11-04T02:20:07.916Z,19.50
2018-11-04T02:22:43.105Z,18.37
2018-11-04T02:25:17.896Z,18.40
2018-11-04T02:27:54.274Z,18.73
2018-11-04T02:30:29.246Z,17.90
2018-11-04T02:33:06.521Z,18.50
2018-11-04T02:35:41.584Z,17.07
2018-11-04T02:38:16.635Z,19.37
2018-11-04T02:40:51.627Z,19.60
2018-11-04T02:43:26.639Z,18.67
2018-11-04T02:46:02.699Z,17.60
2018-11-04T02:48:38.129Z,19.87
2018-11-04T02:51:12.971Z,18.27
2018-11-04T02:53:48.955Z,18.70
2018-11-04T02:56:24.120Z,18.53
2018-11-04T02:58:59.072Z,19.13
2018-11-04T03:01:34.247Z,19.60
2018-11-04T03:04:09.253Z,18.87
2018-11-04T03:06:44.916Z,18.80
2018-11-04T03:09:19.677Z,19.50
2018-11-04T03:11:54.994Z,19.60
2018-11-04T03:14:29.783Z,19.30
2018-11-04T03:17:04.871Z,18.43
2018-11-04T03:19:39.794Z,18.60
2018-11-04T03:22:14.687Z,17.60
2018-11-04T03:24:49.896Z,19.67
2018-11-04T03:27:24.963Z,20.07
2018-11-04T03:29:59.989Z,19.20
2018-11-04T03:32:35.041Z,19.03
2018-11-04T03:35:10.261Z,19.47
2018-11-04T03:37:45.308Z,19.40
2018-11-04T03:40:20.372Z,19.07
2018-11-04T03:42:55.186Z,19.70
2018-11-04T03:45:30.140Z,19.80
2018-11-04T03:48:05.400Z,20.00
2018-11-04T03:50:40.059Z,17.87
2018-11-04T03:53:15.038Z,19.20
2018-11-04T03:55:49.926Z,19.20
2018-11-04T03:58:24.709Z,20.17
2018-11-04T04:00:59.870Z,20.03
2018-11-04T04:03:34.778Z,18.63
2018-11-04T04:06:09.642Z,19.17
2018-11-04T04:08:44.931Z,18.40
2018-11-04T04:11:20.084Z,19.23
2018-11-04T04:13:54.943Z,19.30
2018-11-04T04:16:30.532Z,18.97
2018-11-04T04:19:05.907Z,20.17
2018-11-04T04:21:40.693Z,18.70
2018-11-04T04:24:15.782Z,19.37
2018-11-04T04:26:50.570Z,18.67
2018-11-04T04:29:25.471Z,18.80
2018-11-04T04:32:00.387Z,19.00
2018-11-04T04:34:35.580Z,18.23
2018-11-04T04:37:10.444Z,20.00
2018-11-04T04:39:45.213Z,19.57
2018-11-04T04:42:20.108Z,18.60
2018-11-04T04:44:55.087Z,19.90
2018-11-04T04:47:30.191Z,19.50
2018-11-04T04:50:05.460Z,20.30
2018-11-04T04:52:40.340Z,19.67
2018-11-04T04:55:15.374Z,19.83
2018-11-04T04:57:50.296Z,20.20
2018-11-04T05:00:25.113Z,19.50
2018-11-04T05:03:00.313Z,20.23
2018-11-04T05:05:35.153Z,20.10
2018-11-04T05:08:09.981Z,19.80
2018-11-04T05:10:45.297Z,21.37
2018-11-04T05:13:20.038Z,20.97
2018-11-04T05:15:55.031Z,19.40
2018-11-04T05:18:30.602Z,20.10
2018-11-04T05:21:05.909Z,20.27
2018-11-04T05:23:41.018Z,21.33
2018-11-04T05:26:15.917Z,19.40
2018-11-04T05:28:51.018Z,18.57
2018-11-04T05:31:25.807Z,19.70
2018-11-04T05:34:01.530Z,18.53
2018-11-04T05:36:36.458Z,19.10
2018-11-04T05:39:12.034Z,19.37
2018-11-04T05:41:47.020Z,20.07
2018-11-04T05:44:22.069Z,19.53
2018-11-04T05:46:57.179Z,20.00
2018-11-04T05:49:32.350Z,20.33
2018-11-04T05:52:07.205Z,19.47
2018-11-04T05:54:42.253Z,19.50
2018-11-04T05:57:17.180Z,20.93
2018-11-04T05:59:52.862Z,20.23
2018-11-04T06:02:28.223Z,20.10
2018-11-04T06:05:03.207Z,22.60
2018-11-04T06:07:38.302Z,20.23
2018-11-04T06:10:12.963Z,20.67
2018-11-04T06:12:47.880Z,20.83
2018-11-04T06:15:23.174Z,21.33
2018-11-04T06:17:57.958Z,20.50
2018-11-04T06:20:33.161Z,20.10
2018-11-04T06:23:07.995Z,21.00
2018-11-04T06:25:43.173Z,21.23
2018-11-04T06:28:18.034Z,19.83
2018-11-04T06:30:57.524Z,20.70
2018-11-04T06:33:32.810Z,20.90
2018-11-04T06:36:08.265Z,20.53
2018-11-04T06:38:43.165Z,21.33
2018-11-04T06:41:18.333Z,20.90
2018-11-04T06:43:53.331Z,20.50
2018-11-04T06:46:28.319Z,20.80
2018-11-04T06:49:03.340Z,20.90
2018-11-04T06:51:38.754Z,21.20
2018-11-04T06:54:13.521Z,20.53
2018-11-04T06:56:48.351Z,20.90
2018-11-04T06:59:23.747Z,22.40
2018-11-04T07:01:59.473Z,21.40
2018-11-04T07:04:34.954Z,21.40
2018-11-04T07:07:10.756Z,20.40
2018-11-04T07:09:45.993Z,21.30
2018-11-04T07:12:20.966Z,21.47
2018-11-04T07:14:56.206Z,21.37
2018-11-04T07:17:31.257Z,21.47
2018-11-04T07:20:07.848Z,21.47
2018-11-04T07:22:42.953Z,21.93
2018-11-04T07:25:18.456Z,20.97
2018-11-04T07:27:53.664Z,21.77
2018-11-04T07:30:28.616Z,21.30
2018-11-04T07:33:03.582Z,20.83
2018-11-04T07:35:38.779Z,22.70
2018-11-04T07:38:13.776Z,22.70
2018-11-04T07:40:49.889Z,20.67
2018-11-04T07:43:24.856Z,22.97
2018-11-04T07:45:59.957Z,22.20
2018-11-04T07:48:34.955Z,20.43
2018-11-04T07:51:11.192Z,21.10
2018-11-04T07:53:46.482Z,20.33
2018-11-04T07:56:21.787Z,21.03
2018-11-04T07:58:56.727Z,21.23
2018-11-04T08:01:31.868Z,21.70
2018-11-04T08:04:07.049Z,21.47
2018-11-04T08:06:42.533Z,22.20
2018-11-04T08:09:17.566Z,22.10
2018-11-04T08:11:52.679Z,21.73
2018-11-04T08:14:27.635Z,21.03
2018-11-04T08:17:02.467Z,22.50
2018-11-04T08:19:37.402Z,22.27
2018-11-04T08:22:12.928Z,22.60
2018-11-04T08:24:48.035Z,23.27
2018-11-04T08:27:23.316Z,24.33
2018-11-04T08:29:58.502Z,22.57
2018-11-04T08:32:34.291Z,22.00
2018-11-04T08:35:09.379Z,23.23
2018-11-04T08:37:44.412Z,23.63
2018-11-04T08:40:19.378Z,23.80
2018-11-04T08:42:54.907Z,23.37
2018-11-04T08:45:30.195Z,25.67
2018-11-04T08:48:05.755Z,23.70
2018-11-04T08:50:41.714Z,23.23
2018-11-04T08:53:17.704Z,24.20
2018-11-04T08:55:52.905Z,23.93
2018-11-04T08:58:27.759Z,25.00
2018-11-04T09:01:02.652Z,24.13
2018-11-04T09:03:37.628Z,24.87
2018-11-04T09:06:12.481Z,23.67
2018-11-04T09:08:47.509Z,24.03
2018-11-04T09:11:22.223Z,23.93
2018-11-04T09:13:57.242Z,24.27
2018-11-04T09:16:32.607Z,25.47
2018-11-04T09:19:07.582Z,26.47
2018-11-04T09:21:43.573Z,25.27
2018-11-04T09:24:18.990Z,25.93
2018-11-04T09:26:54.828Z,25.10
2018-11-04T09:29:29.580Z,26.37
2018-11-04T09:32:05.129Z,27.40
2018-11-04T09:34:40.261Z,26.13
2018-11-04T09:37:15.344Z,26.10
2018-11-04T09:39:51.102Z,26.27
2018-11-04T09:42:26.288Z,25.40
2018-11-04T09:45:02.333Z,25.63
2018-11-04T09:47:37.600Z,25.87
2018-11-04T09:50:13.220Z,26.47
2018-11-04T09:52:48.264Z,24.20
2018-11-04T09:55:23.565Z,25.30
2018-11-04T09:57:58.663Z,24.80
2018-11-04T10:00:34.465Z,25.90
2018-11-04T10:03:09.549Z,26.80
2018-11-04T10:05:44.637Z,27.43
2018-11-04T10:08:20.778Z,27.97
2018-11-04T10:10:55.821Z,26.20
2018-11-04T10:13:32.177Z,27.70
2018-11-04T10:16:08.033Z,28.07
2018-11-04T10:18:43.245Z,26.83
2018-11-04T10:21:18.610Z,25.97
2018-11-04T10:23:54.172Z,26.93
2018-11-04T10:26:29.095Z,26.20
2018-11-04T10:29:04.094Z,28.63
2018-11-04T10:31:39.819Z,28.10
2018-11-04T10:34:15.234Z,27.60
2018-11-04T10:36:50.330Z,28.20
2018-11-04T10:39:25.682Z,28.27
2018-11-04T10:42:01.213Z,28.60
2018-11-04T10:44:36.264Z,29.50
2018-11-04T10:47:11.812Z,27.90
2018-11-04T10:49:47.022Z,28.93
2018-11-04T10:52:23.021Z,28.37
2018-11-04T10:54:57.943Z,30.47
2018-11-04T10:57:33.077Z,28.70
2018-11-04T11:00:15.487Z,27.90
2018-11-04T11:02:50.940Z,29.03
2018-11-04T11:05:26.297Z,29.63
2018-11-04T11:08:01.391Z,28.90
2018-11-04T11:10:36.579Z,28.83
2018-11-04T11:13:11.791Z,28.33
2018-11-04T11:15:47.282Z,27.77
2018-11-04T11:18:22.880Z,28.80
2018-11-04T11:20:58.007Z,27.57
2018-11-04T11:23:33.012Z,28.33
2018-11-04T11:26:07.966Z,27.17
2018-11-04T11:28:43.984Z,28.40
2018-11-04T11:31:18.960Z,28.10
2018-11-04T11:33:54.046Z,29.93
2018-11-04T11:36:29.248Z,28.87
2018-11-04T11:39:09.207Z,28.00
2018-11-04T11:41:44.337Z,27.03
2018-11-04T11:44:19.548Z,28.67
2018-11-04T11:46:54.348Z,28.47
2018-11-04T11:49:29.632Z,28.00
2018-11-04T11:52:04.485Z,27.77
2018-11-04T11:54:39.617Z,27.50
2018-11-04T11:57:14.958Z,28.33
2018-11-04T11:59:50.238Z,29.40
2018-11-04T12:02:26.371Z,27.33
2018-11-04T12:05:02.395Z,27.60
2018-11-04T12:07:37.995Z,29.23
2018-11-04T12:10:13.821Z,26.67
2018-11-04T12:12:48.920Z,28.23
2018-11-04T12:15:24.758Z,27.73
2018-11-04T12:17:59.789Z,29.37
2018-11-04T12:20:35.893Z,29.00
2018-11-04T12:23:10.882Z,29.47
2018-11-04T12:25:46.433Z,27.60
2018-11-04T12:28:22.227Z,27.30
2018-11-04T12:30:57.372Z,27.50
2018-11-04T12:33:33.116Z,27.70
2018-11-04T12:36:08.250Z,28.43
2018-11-04T12:38:44.209Z,27.80
2018-11-04T12:41:19.191Z,27.83
2018-11-04T12:43:54.391Z,28.10
2018-11-04T12:46:29.483Z,28.50
2018-11-04T12:49:04.679Z,28.37
2018-11-04T12:51:34.699Z,29.10
2018-11-04T12:54:04.310Z,28.40
2018-11-04T12:56:33.865Z,29.87
2018-11-04T12:59:03.483Z,28.47
2018-11-04T13:01:33.118Z,29.73
2018-11-04T13:04:02.700Z,28.77
2018-11-04T13:06:33.134Z,27.60
2018-11-04T13:09:03.069Z,29.37
2018-11-04T13:11:32.717Z,30.23
2018-11-04T13:14:02.444Z,28.83
2018-11-04T13:16:31.919Z,29.10
2018-11-04T13:19:01.620Z,29.40
2018-11-04T13:21:31.196Z,28.93
2018-11-04T13:24:06.692Z,26.47
2018-11-04T13:26:41.639Z,27.97
2018-11-04T13:29:16.508Z,27.70
2018-11-04T13:31:51.963Z,27.90
2018-11-04T13:34:22.470Z,28.20
2018-11-04T13:36:52.018Z,27.30
2018-11-04T13:39:21.689Z,28.73
2018-11-04T13:41:50.984Z,29.70
2018-11-04T13:44:20.509Z,29.23
2018-11-04T13:46:50.921Z,28.37
2018-11-04T13:49:21.322Z,29.07
2018-11-04T13:51:50.830Z,27.60
2018-11-04T13:54:20.587Z,29.27
2018-11-04T13:56:50.299Z,28.17
2018-11-04T13:59:20.083Z,29.13
2018-11-04T14:01:51.940Z,28.27
2018-11-04T14:04:21.404Z,27.47
2018-11-04T14:06:51.077Z,28.93
2018-11-04T14:09:20.459Z,28.83
2018-11-04T14:11:50.010Z,27.97
2018-11-04T14:14:19.574Z,28.27
2018-11-04T14:16:49.193Z,25.87
2018-11-04T14:19:19.450Z,27.67
2018-11-04T14:21:49.895Z,27.00
2018-11-04T14:24:19.469Z,26.70
2018-11-04T14:26:49.452Z,27.07
2018-11-04T14:29:19.214Z,26.33
2018-11-04T14:31:48.695Z,25.77
2018-11-04T14:34:18.544Z,27.53
2018-11-04T14:36:48.695Z,27.50
2018-11-04T14:39:18.213Z,27.40
2018-11-04T14:41:47.775Z,26.80
2018-11-04T14:44:17.438Z,26.47
2018-11-04T14:46:47.034Z,27.20
2018-11-04T14:49:16.573Z,27.67
2018-11-04T14:51:45.993Z,26.70
2018-11-04T14:54:16.371Z,28.73
2018-11-04T14:56:46.702Z,27.13
2018-11-04T14:59:16.284Z,26.23
2018-11-04T15:01:51.728Z,27.10
2018-11-04T15:04:27.129Z,26.13
2018-11-04T15:07:02.186Z,26.77
2018-11-04T15:09:37.720Z,27.33
2018-11-04T15:12:12.969Z,26.77
2018-11-04T15:14:47.921Z,27.00
2018-11-04T15:17:23.177Z,25.90
2018-11-04T15:19:59.196Z,26.30
2018-11-04T15:22:34.594Z,26.43
2018-11-04T15:25:09.737Z,25.60
2018-11-04T15:27:44.703Z,26.93
2018-11-04T15:30:20.025Z,26.57
2018-11-04T15:32:55.650Z,27.37
2018-11-04T15:35:31.034Z,26.00
2018-11-04T15:38:06.675Z,25.60
2018-11-04T15:40:41.784Z,27.40
2018-11-04T15:43:17.079Z,25.00
2018-11-04T15:45:52.623Z,26.67
2018-11-04T15:48:27.484Z,26.40
2018-11-04T15:51:02.632Z,25.87
2018-11-04T15:53:37.869Z,24.93
2018-11-04T15:56:13.165Z,26.47
2018-11-04T15:58:48.234Z,28.57
2018-11-04T16:01:23.436Z,26.23
2018-11-04T16:03:58.609Z,26.00
2018-11-04T16:06:33.980Z,25.67
2018-11-04T16:09:09.517Z,25.60
2018-11-04T16:11:44.784Z,25.83
2018-11-04T16:14:20.000Z,22.47
2018-11-04T16:16:55.111Z,24.13
2018-11-04T16:19:31.119Z,25.10
2018-11-04T16:22:06.323Z,23.47
2018-11-04T16:24:41.595Z,24.80
2018-11-04T16:27:16.838Z,23.37
2018-11-04T16:29:52.009Z,27.43
2018-11-04T16:32:27.040Z,25.53
2018-11-04T16:35:02.702Z,24.10
2018-11-04T16:37:38.678Z,23.63
2018-11-04T16:40:09.344Z,24.20
2018-11-04T16:42:44.656Z,24.10
2018-11-04T16:45:20.490Z,22.10
2018-11-04T16:47:55.790Z,22.73
2018-11-04T16:50:30.603Z,22.60
2018-11-04T16:53:06.034Z,23.23
2018-11-04T16:55:40.921Z,23.93
2018-11-04T16:58:17.190Z,24.43
2018-11-04T17:00:53.239Z,22.50
2018-11-04T17:03:28.608Z,23.20
2018-11-04T17:06:03.573Z,22.03
2018-11-04T17:08:38.701Z,22.00
2018-11-04T17:11:13.902Z,24.40
2018-11-04T17:13:49.466Z,22.50
2018-11-04T17:16:24.975Z,23.47
2018-11-04T17:19:00.166Z,22.43
2018-11-04T17:21:35.645Z,23.07
2018-11-04T17:24:10.929Z,22.03
2018-11-04T17:26:51.555Z,23.23
2018-11-04T17:29:26.927Z,22.47
2018-11-04T17:32:02.307Z,22.93
2018-11-04T17:34:37.783Z,21.73
2018-11-04T17:37:13.021Z,22.30
2018-11-04T17:39:48.180Z,21.97
2018-11-04T17:42:23.294Z,21.97
2018-11-04T17:44:58.889Z,22.80
2018-11-04T17:47:30.492Z,20.73
2018-11-04T17:50:07.181Z,20.57
2018-11-04T17:52:42.730Z,22.60
2018-11-04T17:55:18.568Z,22.73
2018-11-04T17:57:53.796Z,21.50
2018-11-04T18:00:29.013Z,22.07
2018-11-04T18:03:04.455Z,21.97
2018-11-04T18:05:39.589Z,22.03
2018-11-04T18:08:08.919Z,20.10
2018-11-04T18:10:44.426Z,20.67
2018-11-04T18:13:19.899Z,21.33
2018-11-04T18:15:55.214Z,22.33
2018-11-04T18:18:30.807Z,20.07
2018-11-04T18:21:07.336Z,21.17
2018-11-04T18:23:42.750Z,20.57
2018-11-04T18:26:18.098Z,19.97
2018-11-04T18:28:53.195Z,20.93
2018-11-04T18:31:29.059Z,20.80
2018-11-04T18:34:04.357Z,19.90
2018-11-04T18:36:39.838Z,21.07
2018-11-04T18:39:10.271Z,20.40
2018-11-04T18:41:45.653Z,20.63
2018-11-04T18:44:21.257Z,20.73
2018-11-04T18:46:57.085Z,21.00
2018-11-04T18:49:32.552Z,20.47
2018-11-04T18:52:08.414Z,20.00
2018-11-04T18:54:43.944Z,20.00
2018-11-04T18:57:19.153Z,21.20
2018-11-04T18:59:54.486Z,22.30
2018-11-04T19:02:29.754Z,21.47
2018-11-04T19:05:06.194Z,22.33
2018-11-04T19:07:41.528Z,21.23
2018-11-04T19:10:18.726Z,19.93
2018-11-04T19:12:53.734Z,21.40
2018-11-04T19:15:29.162Z,20.60
2018-11-04T19:18:04.295Z,20.47
2018-11-04T19:20:39.517Z,20.13
2018-11-04T19:23:14.677Z,19.90
2018-11-04T19:25:49.626Z,19.90
2018-11-04T19:28:24.725Z,19.70
2018-11-04T19:30:59.924Z,19.70
2018-11-04T19:33:35.169Z,20.00
2018-11-04T19:36:04.726Z,20.90
2018-11-04T19:38:41.172Z,20.00
2018-11-04T19:41:11.138Z,19.10
2018-11-04T19:43:41.107Z,18.87
2018-11-04T19:46:10.682Z,18.60
2018-11-04T19:48:40.786Z,19.50
2018-11-04T19:51:10.696Z,18.40
2018-11-04T19:53:40.169Z,18.43
2018-11-04T19:56:10.576Z,16.87
2018-11-04T19:58:41.283Z,16.97
2018-11-04T20:01:11.193Z,18.97
2018-11-04T20:03:41.343Z,18.57
2018-11-04T20:06:11.872Z,18.70
2018-11-04T20:08:46.810Z,20.10
2018-11-04T20:11:16.401Z,17.30
2018-11-04T20:13:51.308Z,18.10
2018-11-04T20:16:20.963Z,18.07
2018-11-04T20:18:56.208Z,17.53
2018-11-04T20:21:30.173Z,17.40
2018-11-04T20:24:06.572Z,17.97
2018-11-04T20:26:37.639Z,18.47
2018-11-04T20:29:07.776Z,18.83
2018-11-04T20:31:44.499Z,17.70
2018-11-04T20:34:14.457Z,16.90
2018-11-04T20:36:46.383Z,18.07
2018-11-04T20:39:21.355Z,17.90
2018-11-04T20:41:57.159Z,16.97
2018-11-04T20:44:38.309Z,17.03
2018-11-04T20:47:08.304Z,16.97
2018-11-04T20:49:42.944Z,17.67
2018-11-04T20:52:18.254Z,17.00
2018-11-04T20:54:53.807Z,18.13
2018-11-04T20:57:38.397Z,17.90
2018-11-04T21:00:14.448Z,15.77
2018-11-04T21:02:46.259Z,16.93
2018-11-04T21:05:21.505Z,16.50
2018-11-04T21:07:56.585Z,17.60
2018-11-04T21:10:33.143Z,16.03
2018-11-04T21:13:09.809Z,16.13
2018-11-04T21:15:45.704Z,15.47
2018-11-04T21:18:22.694Z,17.13
2018-11-04T21:20:58.713Z,17.07
2018-11-04T21:23:33.857Z,16.97
2018-11-04T21:26:08.887Z,15.60
2018-11-04T21:28:44.234Z,17.07
2018-11-04T21:31:20.497Z,17.50
2018-11-04T21:33:55.969Z,18.50
2018-11-04T21:36:31.908Z,16.90
2018-11-04T21:39:09.845Z,15.83
2018-11-04T21:41:45.336Z,16.60
2018-11-04T21:44:21.523Z,16.37
2018-11-04T21:46:56.871Z,16.70
2018-11-04T21:49:33.545Z,16.30
2018-11-04T21:52:14.362Z,16.47
2018-11-04T21:54:49.513Z,16.97
2018-11-04T21:57:24.699Z,16.30
2018-11-04T22:00:00.518Z,16.07
2018-11-04T22:02:36.423Z,16.80
2018-11-04T22:05:12.020Z,17.17
2018-11-04T22:07:47.707Z,16.80
2018-11-04T22:10:23.026Z,17.27
2018-11-04T22:12:58.490Z,16.63
2018-11-04T22:15:33.787Z,15.40
2018-11-04T22:18:09.812Z,16.30
2018-11-04T22:20:45.211Z,15.60
2018-11-04T22:23:20.459Z,17.20
2018-11-04T22:25:56.039Z,17.27
2018-11-04T22:28:31.314Z,17.50
2018-11-04T22:31:06.627Z,17.20
2018-11-04T22:33:42.388Z,17.60
2018-11-04T22:36:17.458Z,16.90
2018-11-04T22:38:52.535Z,16.83
2018-11-04T22:41:27.545Z,15.90
2018-11-04T22:44:02.879Z,18.20
2018-11-04T22:46:38.133Z,16.10
2018-11-04T22:49:14.093Z,17.20
2018-11-04T22:51:49.696Z,15.80
2018-11-04T22:54:25.026Z,15.97
2018-11-04T22:57:00.056Z,16.90
2018-11-04T22:59:37.014Z,16.80
2018-11-04T23:02:15.059Z,18.17
2018-11-04T23:04:55.622Z,19.43
2018-11-04T23:07:31.178Z,17.03
2018-11-04T23:10:06.788Z,19.23
2018-11-04T23:12:42.113Z,18.13
2018-11-04T23:15:17.147Z,17.17
2018-11-04T23:17:53.004Z,17.93
2018-11-04T23:20:28.132Z,18.00
2018-11-04T23:23:03.261Z,17.77
2018-11-04T23:25:38.597Z,16.30
2018-11-04T23:28:13.768Z,16.53
2018-11-04T23:30:48.759Z,15.57
2018-11-04T23:33:23.857Z,16.33
2018-11-04T23:35:59.049Z,16.60
2018-11-04T23:38:33.994Z,16.00
2018-11-04T23:41:09.089Z,16.27
2018-11-04T23:43:44.074Z,15.40
2018-11-04T23:46:19.471Z,15.80
2018-11-04T23:48:55.269Z,17.10
2018-11-04T23:51:31.032Z,16.87
2018-11-04T23:54:06.801Z,15.20
2018-11-04T23:56:42.027Z,15.50
2018-11-04T23:59:18.389Z,15.07
